Time;durP1;ratioP1;P1;durP2;ratioP2;P2;SDS_P1;SDS_P2;PMS_P1;PMS_P2;Temp;Humidity;BMP_temperature;BMP_pressure;BME280_temperature;BME280_humidity;BME280_pressure;Samples;Min_cycle;Max_cycle;Signal;HPM_P1;HPM_P2
2022/08/12 00:44:41;;;;;;;0.82;0.82;;;22.00;91.50;;;;;;5063105;28;20199;-61
2022/08/12 00:47:08;;;;;;;0.80;0.80;;;22.00;91.50;;;;;;5065774;28;20223;-62
2022/08/12 00:49:36;;;;;;;0.65;0.65;;;22.00;91.60;;;;;;5066226;28;20208;-62
2022/08/12 00:52:08;;;;;;;0.85;0.70;;;21.90;91.60;;;;;;5070334;28;20209;-62
2022/08/12 00:54:38;;;;;;;0.70;0.70;;;21.80;91.80;;;;;;5058320;28;20209;-63
2022/08/12 00:57:07;;;;;;;0.70;0.70;;;21.90;91.80;;;;;;5062093;28;20225;-63
2022/08/12 00:59:36;;;;;;;1.10;0.75;;;21.90;91.80;;;;;;5066132;28;20210;-61
2022/08/12 01:02:06;;;;;;;0.70;0.70;;;21.80;91.80;;;;;;5068296;28;20298;-62
2022/08/12 01:12:50;;;;;;;0.70;0.70;;;21.40;92.10;;;;;;5058678;28;20206;-61
2022/08/12 01:15:18;;;;;;;0.70;0.70;;;21.30;92.20;;;;;;5068364;28;20226;-61
2022/08/12 01:17:47;;;;;;;1.27;1.17;;;21.30;92.80;;;;;;5060951;28;20219;-61
2022/08/12 01:20:21;;;;;;;0.60;0.60;;;21.20;92.30;;;;;;5069617;28;20245;-61
2022/08/12 01:23:11;;;;;;;0.80;0.80;;;21.20;92.60;;;;;;5057688;28;20263;-61
2022/08/12 01:25:44;;;;;;;0.70;0.70;;;21.20;92.80;;;;;;5063754;28;20564;-61
2022/08/12 01:28:12;;;;;;;0.90;0.82;;;21.20;92.70;;;;;;5063052;28;20228;-62
2022/08/12 01:30:42;;;;;;;0.70;0.70;;;21.30;92.90;;;;;;5064316;28;20207;-61
2022/08/12 01:33:15;;;;;;;0.60;0.60;;;21.30;92.80;;;;;;5064101;28;20857;-62
2022/08/12 01:35:47;;;;;;;1.30;0.68;;;21.20;93.00;;;;;;5050293;28;20564;-63
2022/08/12 01:38:19;;;;;;;0.70;0.70;;;21.30;93.10;;;;;;5063795;28;20232;-61
2022/08/12 01:40:49;;;;;;;0.65;0.65;;;21.30;93.30;;;;;;5056868;28;20199;-62
2022/08/12 01:43:20;;;;;;;0.60;0.60;;;21.20;93.00;;;;;;5084119;22;20226;-60
2022/08/12 01:45:58;;;;;;;0.63;0.63;;;21.00;93.20;;;;;;5084293;28;20226;-62
2022/08/12 01:48:35;;;;;;;0.80;0.80;;;21.00;93.20;;;;;;5081593;28;20397;-61
2022/08/12 01:51:08;;;;;;;0.98;0.80;;;21.00;93.20;;;;;;5083634;28;20198;-62
2022/08/12 01:53:46;;;;;;;0.98;0.80;;;20.80;93.30;;;;;;5062636;28;20226;-61
2022/08/12 01:56:17;;;;;;;0.75;0.75;;;20.70;93.20;;;;;;5068650;28;20206;-62
2022/08/12 02:01:33;;;;;;;0.60;0.60;;;20.60;93.50;;;;;;5010026;28;20285;-61
2022/08/12 02:12:53;;;;;;;0.70;0.70;;;20.10;94.40;;;;;;5057803;28;20703;-62
2022/08/12 02:15:27;;;;;;;0.82;0.82;;;19.90;94.50;;;;;;5066920;28;20294;-60
2022/08/12 02:18:22;;;;;;;0.90;0.90;;;19.90;94.70;;;;;;5060292;28;20206;-61
2022/08/12 02:20:58;;;;;;;0.90;0.90;;;19.80;94.90;;;;;;5054481;28;20278;-60
2022/08/12 02:23:26;;;;;;;0.80;0.80;;;19.80;95.00;;;;;;5059978;28;20247;-62
2022/08/12 02:25:58;;;;;;;1.48;0.80;;;19.80;94.90;;;;;;5066729;28;20334;-61
2022/08/12 02:28:27;;;;;;;0.85;0.75;;;19.80;95.00;;;;;;5059439;28;20584;-62
2022/08/12 02:30:55;;;;;;;0.80;0.80;;;19.70;95.20;;;;;;5064170;28;20199;-62
2022/08/12 02:33:26;;;;;;;0.80;0.80;;;19.70;95.20;;;;;;5062034;28;20794;-60
2022/08/12 02:35:54;;;;;;;0.75;0.75;;;19.70;95.20;;;;;;5064332;28;20201;-61
2022/08/12 02:38:23;;;;;;;0.70;0.70;;;19.70;95.30;;;;;;5063212;28;20287;-61
2022/08/12 02:40:53;;;;;;;0.80;0.80;;;19.80;95.20;;;;;;5063645;28;20250;-61
2022/08/12 02:43:30;;;;;;;0.73;0.73;;;19.80;95.30;;;;;;5063081;28;20228;-61
2022/08/12 02:46:03;;;;;;;0.80;0.80;;;19.80;95.40;;;;;;5063558;28;20229;-60
2022/08/12 02:48:35;;;;;;;0.63;0.63;;;19.90;95.50;;;;;;5062027;28;20212;-61
2022/08/12 02:51:06;;;;;;;0.70;0.70;;;19.90;95.20;;;;;;5057097;28;20297;-61
2022/08/12 02:53:34;;;;;;;0.75;0.70;;;19.90;95.30;;;;;;5065307;28;20310;-61
2022/08/12 02:56:02;;;;;;;0.60;0.60;;;20.00;95.20;;;;;;5059988;28;20200;-61
2022/08/12 02:58:32;;;;;;;0.70;0.70;;;20.00;95.20;;;;;;5060638;28;20211;-60
2022/08/12 03:01:00;;;;;;;0.70;0.70;;;19.90;95.30;;;;;;5063891;28;20207;-60
2022/08/12 03:03:33;;;;;;;0.68;0.68;;;19.90;95.50;;;;;;5061213;28;20227;-60
2022/08/12 03:06:05;;;;;;;1.48;0.90;;;19.80;95.70;;;;;;5065201;28;20575;-60
2022/08/12 03:08:42;;;;;;;0.70;0.70;;;19.80;95.90;;;;;;5061222;28;20548;-60
2022/08/12 03:11:15;;;;;;;0.77;0.70;;;19.80;96.10;;;;;;5059217;28;20225;-60
2022/08/12 03:13:47;;;;;;;0.63;0.63;;;19.80;96.30;;;;;;5069252;28;20231;-61
2022/08/12 03:16:14;;;;;;;0.80;0.80;;;19.70;96.20;;;;;;5061932;28;20204;-60
2022/08/12 03:18:42;;;;;;;0.70;0.70;;;19.80;96.00;;;;;;5066698;28;20212;-60
2022/08/12 03:21:12;;;;;;;0.65;0.65;;;19.80;95.90;;;;;;5059570;28;20230;-61
2022/08/12 03:23:41;;;;;;;0.93;0.93;;;19.90;96.20;;;;;;5066957;28;20246;-62
2022/08/12 03:26:08;;;;;;;0.80;0.80;;;19.90;96.10;;;;;;5059633;28;20219;-61
2022/08/12 03:28:52;;;;;;;1.02;0.93;;;19.90;96.00;;;;;;5062464;28;20319;-61
2022/08/12 03:31:24;;;;;;;0.60;0.60;;;19.90;96.00;;;;;;5061286;28;20571;-61
2022/08/12 03:33:52;;;;;;;0.80;0.80;;;19.90;96.10;;;;;;5062768;28;20204;-61
2022/08/12 03:36:20;;;;;;;0.60;0.60;;;20.00;96.10;;;;;;5061876;28;20223;-62
2022/08/12 03:39:17;;;;;;;1.65;0.90;;;19.90;96.30;;;;;;5062913;28;20289;-62
2022/08/12 03:41:43;;;;;;;0.77;0.77;;;20.00;96.40;;;;;;5064007;28;20226;-62
2022/08/12 04:00:57;;;;;;;0.70;0.70;;;20.00;96.40;;;;;;5065779;28;20723;-60
2022/08/12 04:06:10;;;;;;;0.63;0.63;;;20.00;96.70;;;;;;5067154;28;20217;-60
2022/08/12 04:08:38;;;;;;;0.75;0.75;;;20.00;97.30;;;;;;5064292;28;20204;-61
2022/08/12 04:13:50;;;;;;;0.65;0.65;;;20.10;96.80;;;;;;5060356;28;20211;-61
2022/08/12 04:16:17;;;;;;;0.82;0.82;;;20.10;96.90;;;;;;5069406;28;20195;-64
2022/08/12 04:18:46;;;;;;;0.73;0.73;;;20.00;96.90;;;;;;5063147;28;20203;-61
2022/08/12 04:21:13;;;;;;;0.80;0.80;;;19.70;97.30;;;;;;5070674;28;20211;-62
2022/08/12 04:23:42;;;;;;;3.72;1.00;;;19.80;97.30;;;;;;5062546;28;20222;-62
2022/08/12 04:26:09;;;;;;;0.98;0.98;;;19.90;97.40;;;;;;5062946;28;20231;-62
2022/08/12 04:28:36;;;;;;;1.25;0.90;;;19.90;97.50;;;;;;5068617;28;20626;-62
2022/08/12 04:31:03;;;;;;;1.08;1.08;;;19.90;97.40;;;;;;5062287;28;20294;-60
2022/08/12 04:33:31;;;;;;;0.80;0.80;;;19.90;97.40;;;;;;5068868;28;20223;-61
2022/08/12 04:35:59;;;;;;;0.73;0.73;;;20.00;97.40;;;;;;5061898;28;20598;-60
2022/08/12 04:38:28;;;;;;;1.33;1.20;;;20.00;97.50;;;;;;5069957;28;20303;-61
2022/08/12 04:40:55;;;;;;;0.82;0.82;;;19.90;97.40;;;;;;5062445;28;20211;-61
2022/08/12 04:43:24;;;;;;;2.40;1.00;;;19.90;97.40;;;;;;5062552;28;20589;-60
2022/08/12 04:45:51;;;;;;;0.98;0.80;;;19.90;97.60;;;;;;5066924;28;20227;-61
2022/08/12 04:48:18;;;;;;;0.70;0.70;;;19.80;97.90;;;;;;5062691;28;20203;-61
2022/08/12 04:50:45;;;;;;;0.60;0.60;;;19.70;97.50;;;;;;5068732;28;20200;-60
2022/08/12 04:53:14;;;;;;;1.13;1.00;;;19.60;97.90;;;;;;5061019;28;20443;-64
2022/08/12 04:55:44;;;;;;;0.70;0.70;;;19.50;97.90;;;;;;5069299;28;20206;-62
2022/08/12 04:58:12;;;;;;;0.80;0.80;;;19.50;98.10;;;;;;5061795;28;20227;-61
2022/08/12 05:00:39;;;;;;;1.20;0.90;;;19.50;98.40;;;;;;5064651;28;20199;-60
2022/08/12 05:03:07;;;;;;;0.90;0.90;;;19.50;98.60;;;;;;5065298;28;20326;-62
2022/08/12 05:05:36;;;;;;;1.55;0.90;;;19.50;98.80;;;;;;5064211;28;20210;-60
2022/08/12 05:08:06;;;;;;;0.80;0.80;;;19.40;98.90;;;;;;5065150;28;20576;-62
2022/08/12 05:10:34;;;;;;;0.95;0.95;;;19.40;99.20;;;;;;5062298;28;20204;-61
2022/08/12 05:13:04;;;;;;;0.80;0.80;;;19.40;99.50;;;;;;5065516;28;20310;-61
2022/08/12 05:15:31;;;;;;;1.20;1.10;;;19.40;99.90;;;;;;5063718;28;20208;-60
2022/08/12 05:17:58;;;;;;;1.30;1.20;;;19.40;99.80;;;;;;5065155;28;20203;-61
2022/08/12 05:20:25;;;;;;;1.05;1.05;;;19.50;99.90;;;;;;5064552;28;20308;-60
2022/08/12 05:23:05;;;;;;;1.10;1.10;;;19.60;99.90;;;;;;5065392;28;20222;-62
2022/08/12 05:25:34;;;;;;;0.90;0.90;;;19.70;99.90;;;;;;5054640;28;20664;-61
2022/08/12 05:28:01;;;;;;;0.80;0.80;;;19.90;99.90;;;;;;5065308;28;20586;-61
2022/08/12 05:30:29;;;;;;;1.00;1.00;;;20.00;99.90;;;;;;5063197;28;20203;-61
2022/08/12 05:32:57;;;;;;;1.20;1.10;;;20.10;99.90;;;;;;5065328;28;20314;-61
2022/08/12 05:35:24;;;;;;;1.42;1.33;;;20.30;99.90;;;;;;5063275;28;20207;-61
2022/08/12 05:38:54;;;;;;;1.00;1.00;;;20.30;99.90;;;;;;5065577;28;20229;-60
2022/08/12 05:40:41;;;;;;;0.90;0.90;;;20.50;99.90;;;;;;5061231;28;20200;-60
2022/08/12 05:43:08;;;;;;;1.00;1.00;;;20.60;99.90;;;;;;5060792;28;20235;-60
2022/08/12 05:45:35;;;;;;;1.98;1.05;;;20.80;99.90;;;;;;5066997;28;20210;-60
2022/08/12 05:48:02;;;;;;;0.90;0.90;;;21.00;99.90;;;;;;5061994;28;20224;-62
2022/08/12 05:50:29;;;;;;;1.30;1.20;;;21.10;99.90;;;;;;5062050;28;20730;-61
2022/08/12 05:52:56;;;;;;;0.90;0.90;;;21.20;99.80;;;;;;5061646;28;20308;-62
2022/08/12 05:55:23;;;;;;;0.95;0.95;;;21.40;99.90;;;;;;5068570;28;20234;-61
2022/08/12 05:57:55;;;;;;;0.80;0.80;;;21.50;99.90;;;;;;5061124;28;20232;-62
2022/08/12 06:00:24;;;;;;;1.15;0.93;;;21.60;99.50;;;;;;5061532;28;20803;-62
2022/08/12 06:02:52;;;;;;;0.60;0.60;;;21.70;99.70;;;;;;5064283;28;20565;-62
2022/08/12 06:05:19;;;;;;;0.90;0.90;;;21.80;99.20;;;;;;5062790;28;20662;-62
2022/08/12 06:07:46;;;;;;;0.80;0.80;;;21.90;98.80;;;;;;5064575;28;20306;-63
2022/08/12 06:10:14;;;;;;;0.70;0.70;;;22.10;98.90;;;;;;5062384;28;20213;-60
2022/08/12 06:12:41;;;;;;;0.95;0.95;;;22.10;98.50;;;;;;5063548;28;20223;-62
2022/08/12 06:15:10;;;;;;;0.88;0.88;;;22.20;98.50;;;;;;5063129;28;20560;-62
2022/08/12 06:17:37;;;;;;;0.90;0.90;;;22.30;98.40;;;;;;5062839;28;20640;-60
2022/08/12 06:20:04;;;;;;;1.00;1.00;;;22.40;97.90;;;;;;5064191;28;20297;-62
2022/08/12 06:22:33;;;;;;;0.90;0.90;;;22.40;97.90;;;;;;5063862;28;20224;-62
2022/08/12 06:25:01;;;;;;;1.20;0.93;;;22.40;97.90;;;;;;5063609;28;20207;-62
2022/08/12 06:27:28;;;;;;;1.20;1.10;;;22.50;98.10;;;;;;5060787;28;20216;-62
2022/08/12 06:29:57;;;;;;;0.80;0.80;;;22.60;97.90;;;;;;5063312;28;20297;-61
2022/08/12 06:32:26;;;;;;;0.85;0.85;;;22.70;97.70;;;;;;5057548;28;20306;-61
2022/08/12 06:34:55;;;;;;;1.33;0.90;;;22.90;98.20;;;;;;5054232;28;20212;-61
2022/08/12 06:37:22;;;;;;;1.60;1.02;;;23.00;97.90;;;;;;5053483;28;20196;-60
2022/08/12 06:39:50;;;;;;;0.98;0.98;;;23.10;98.10;;;;;;5055194;28;20201;-61
2022/08/12 06:45:01;;;;;;;0.82;0.82;;;23.20;97.20;;;;;;5048990;28;20226;-60
2022/08/12 06:47:31;;;;;;;0.93;0.93;;;23.30;97.30;;;;;;5052621;28;20215;-61
2022/08/12 06:49:58;;;;;;;1.20;1.20;;;23.40;97.60;;;;;;5061024;28;20204;-60
2022/08/12 06:52:27;;;;;;;1.00;1.00;;;23.50;97.30;;;;;;5067268;28;20335;-60
2022/08/12 06:54:54;;;;;;;1.23;0.95;;;23.70;96.90;;;;;;5061068;28;20290;-60
2022/08/12 06:57:24;;;;;;;0.90;0.90;;;23.60;96.70;;;;;;5068466;28;20658;-61
2022/08/12 06:59:51;;;;;;;1.23;1.10;;;23.70;96.80;;;;;;5063897;28;20212;-60
2022/08/12 07:02:19;;;;;;;0.88;0.88;;;23.90;96.70;;;;;;5061421;28;20717;-61
2022/08/12 07:04:47;;;;;;;2.13;1.20;;;23.80;96.70;;;;;;5067313;28;20282;-61
2022/08/12 07:07:14;;;;;;;1.65;1.13;;;23.90;97.50;;;;;;5061082;28;20686;-61
2022/08/12 07:09:42;;;;;;;2.05;1.40;;;23.90;98.30;;;;;;5059311;28;20207;-61
2022/08/12 07:12:18;;;;;;;1.10;1.10;;;23.90;98.90;;;;;;5051060;28;20235;-61
2022/08/12 07:14:45;;;;;;;1.10;1.10;;;23.90;99.20;;;;;;5066313;28;20208;-61
2022/08/12 07:17:14;;;;;;;2.33;1.15;;;23.90;98.90;;;;;;5059261;28;20200;-62
2022/08/12 07:19:42;;;;;;;1.10;1.10;;;23.90;98.80;;;;;;5065724;28;20306;-62
2022/08/12 07:22:12;;;;;;;0.98;0.98;;;23.90;98.70;;;;;;5063307;28;20258;-61
2022/08/12 07:24:41;;;;;;;1.00;1.00;;;23.90;98.60;;;;;;5063770;28;20202;-61
2022/08/12 07:27:07;;;;;;;1.02;1.02;;;23.70;98.20;;;;;;5067278;28;20223;-61
2022/08/12 07:29:34;;;;;;;1.10;1.10;;;23.80;98.60;;;;;;5066978;28;20208;-61
2022/08/12 07:32:04;;;;;;;1.38;1.02;;;23.80;98.30;;;;;;5071935;28;20287;-61
2022/08/12 07:34:31;;;;;;;1.00;1.00;;;23.80;98.20;;;;;;5076241;28;20203;-61
2022/08/12 07:36:59;;;;;;;0.95;0.95;;;24.00;98.20;;;;;;5074107;28;20284;-61
2022/08/12 07:39:29;;;;;;;0.80;0.80;;;24.20;97.90;;;;;;5065861;28;20683;-61
2022/08/12 07:41:57;;;;;;;1.15;1.13;;;24.20;98.00;;;;;;5068499;28;20289;-60
2022/08/12 07:44:24;;;;;;;1.00;1.00;;;24.30;97.50;;;;;;5078686;22;20258;-62
2022/08/12 07:46:51;;;;;;;0.90;0.90;;;24.40;97.00;;;;;;5088040;28;20294;-61
2022/08/12 07:49:18;;;;;;;1.00;1.00;;;24.40;96.50;;;;;;5082765;28;20211;-61
2022/08/12 07:51:45;;;;;;;0.90;0.90;;;24.60;96.60;;;;;;5079917;28;20195;-61
2022/08/12 07:54:13;;;;;;;1.02;1.00;;;24.40;96.70;;;;;;5080727;28;20226;-61
2022/08/12 07:56:42;;;;;;;1.17;0.93;;;24.40;96.50;;;;;;5079909;28;20203;-61
2022/08/12 07:59:09;;;;;;;0.77;0.77;;;24.70;96.30;;;;;;5086094;28;20293;-60
2022/08/12 08:01:37;;;;;;;0.95;0.95;;;24.70;96.20;;;;;;5084684;28;20234;-61
2022/08/12 08:06:50;;;;;;;1.17;1.00;;;25.00;96.30;;;;;;5087038;28;20221;-61
2022/08/12 08:09:20;;;;;;;1.48;0.88;;;25.10;95.70;;;;;;5086724;28;20234;-61
2022/08/12 08:14:33;;;;;;;2.15;1.25;;;25.30;95.00;;;;;;5084326;28;20811;-61
2022/08/12 08:17:02;;;;;;;1.00;1.00;;;25.60;95.20;;;;;;5086695;28;20202;-61
2022/08/12 08:19:30;;;;;;;0.90;0.90;;;25.70;95.10;;;;;;5084643;28;20214;-61
2022/08/12 08:21:58;;;;;;;1.00;1.00;;;25.70;94.20;;;;;;5087772;28;20264;-61
2022/08/12 08:24:26;;;;;;;1.33;0.98;;;25.90;93.60;;;;;;5084963;28;20245;-62
2022/08/12 08:26:59;;;;;;;1.05;0.95;;;25.90;93.90;;;;;;5080098;28;20211;-62
2022/08/12 08:29:28;;;;;;;0.90;0.80;;;26.10;92.10;;;;;;5080574;28;20229;-61
2022/08/12 08:32:00;;;;;;;3.40;0.98;;;26.60;91.20;;;;;;5072617;28;20845;-62
2022/08/12 08:34:28;;;;;;;0.90;0.85;;;26.80;91.20;;;;;;5083484;28;20219;-64
2022/08/12 08:36:56;;;;;;;0.90;0.90;;;27.00;91.10;;;;;;5078764;28;20206;-62
2022/08/12 08:39:26;;;;;;;1.35;1.10;;;27.30;90.80;;;;;;5083794;28;20673;-62
2022/08/12 08:44:40;;;;;;;1.85;1.00;;;27.30;87.70;;;;;;5081767;28;20596;-63
2022/08/12 08:47:07;;;;;;;0.70;0.70;;;27.40;87.20;;;;;;5073904;28;20207;-62
2022/08/12 08:49:35;;;;;;;1.00;1.00;;;27.50;87.30;;;;;;5079160;28;20222;-62
2022/08/12 08:52:02;;;;;;;1.45;0.98;;;27.50;87.40;;;;;;5083714;28;20215;-62
2022/08/12 08:54:32;;;;;;;2.05;0.80;;;27.60;85.70;;;;;;5076451;28;20231;-62
2022/08/12 08:57:00;;;;;;;1.13;1.02;;;27.70;85.50;;;;;;5076907;28;20205;-62
2022/08/12 08:59:28;;;;;;;0.88;0.80;;;27.80;85.10;;;;;;5080508;28;20203;-61
2022/08/12 09:01:56;;;;;;;0.80;0.80;;;27.90;85.00;;;;;;5075279;28;20214;-61
2022/08/12 09:04:23;;;;;;;0.63;0.63;;;28.00;85.50;;;;;;5078781;28;20230;-63
2022/08/12 09:06:57;;;;;;;0.80;0.80;;;28.10;84.80;;;;;;5086383;28;20226;-64
2022/08/12 09:09:24;;;;;;;0.68;0.68;;;28.20;84.60;;;;;;5092150;28;20302;-62
2022/08/12 09:14:38;;;;;;;0.75;0.75;;;28.20;83.80;;;;;;5081765;28;20230;-62
2022/08/12 09:17:05;;;;;;;0.88;0.80;;;28.20;82.90;;;;;;5078868;28;20200;-64
2022/08/12 09:19:31;;;;;;;1.50;1.00;;;28.40;83.00;;;;;;5081225;28;20294;-63
2022/08/12 09:21:59;;;;;;;0.90;0.88;;;28.50;82.90;;;;;;5084793;28;20209;-62
2022/08/12 09:24:26;;;;;;;0.75;0.75;;;28.60;83.10;;;;;;5083893;28;20260;-63
2022/08/12 09:26:52;;;;;;;1.25;0.77;;;28.60;82.20;;;;;;5080534;28;20211;-63
2022/08/12 09:29:20;;;;;;;1.08;0.70;;;28.60;82.40;;;;;;5086253;28;20256;-64
2022/08/12 09:31:49;;;;;;;0.88;0.88;;;28.80;83.10;;;;;;5081791;28;20209;-68
2022/08/12 09:34:17;;;;;;;2.28;0.98;;;28.90;81.80;;;;;;5067821;28;20246;-63
2022/08/12 09:36:44;;;;;;;0.70;0.70;;;28.90;82.40;;;;;;5083891;28;20203;-62
2022/08/12 09:39:12;;;;;;;0.80;0.80;;;29.00;82.80;;;;;;5078839;28;20195;-62
2022/08/12 09:41:39;;;;;;;0.75;0.75;;;29.00;80.80;;;;;;5067445;28;20207;-63
2022/08/12 09:46:52;;;;;;;2.83;1.30;;;29.20;80.00;;;;;;5069369;28;20213;-66
2022/08/12 09:49:20;;;;;;;1.00;1.00;;;29.20;80.00;;;;;;5072041;28;20265;-63
2022/08/12 09:51:47;;;;;;;0.60;0.60;;;29.30;78.60;;;;;;5070884;28;20735;-63
2022/08/12 09:54:15;;;;;;;0.88;0.88;;;29.40;78.10;;;;;;5068620;28;20251;-64
2022/08/12 09:56:43;;;;;;;0.90;0.90;;;29.30;79.00;;;;;;5072496;28;20654;-65
2022/08/12 09:59:10;;;;;;;2.25;1.20;;;29.40;77.00;;;;;;5062017;28;20207;-62
2022/08/12 10:01:39;;;;;;;0.60;0.60;;;29.40;77.80;;;;;;5086512;28;20293;-62
2022/08/12 10:04:09;;;;;;;0.80;0.80;;;29.30;78.80;;;;;;5078009;28;20306;-63
2022/08/12 10:06:36;;;;;;;0.80;0.80;;;29.40;78.10;;;;;;5083460;28;20649;-63
2022/08/12 10:09:05;;;;;;;1.70;1.15;;;29.30;77.90;;;;;;5086408;28;20220;-61
2022/08/12 10:14:17;;;;;;;0.75;0.75;;;29.50;79.00;;;;;;5081880;28;20225;-61
2022/08/12 10:16:44;;;;;;;0.95;0.80;;;29.60;78.60;;;;;;5084197;28;20209;-63
2022/08/12 10:19:14;;;;;;;1.00;1.00;;;29.70;79.40;;;;;;5083828;28;20202;-63
2022/08/12 10:21:42;;;;;;;0.90;0.90;;;29.70;79.40;;;;;;5083615;28;20198;-63
2022/08/12 10:24:11;;;;;;;0.93;0.90;;;29.70;78.20;;;;;;5088525;28;20222;-62
2022/08/12 10:29:38;;;;;;;1.00;0.80;;;29.90;79.30;;;;;;5086938;28;20253;-64
2022/08/12 10:32:06;;;;;;;1.23;0.90;;;30.10;77.60;;;;;;5092648;28;20706;-71
2022/08/12 10:34:35;;;;;;;0.73;0.73;;;30.20;75.40;;;;;;5089085;28;20234;-70
2022/08/12 10:37:03;;;;;;;0.70;0.70;;;30.50;75.00;;;;;;5090297;28;20294;-68
2022/08/12 10:39:34;;;;;;;0.80;0.80;;;30.60;72.90;;;;;;5074532;28;20227;-70
2022/08/12 10:44:46;;;;;;;0.80;0.80;;;30.90;73.20;;;;;;5074183;28;20596;-70
2022/08/12 10:47:15;;;;;;;1.10;0.95;;;30.90;73.10;;;;;;5078666;28;20226;-70
2022/08/12 10:49:45;;;;;;;0.80;0.80;;;31.00;73.20;;;;;;5071239;28;20219;-70
2022/08/12 10:52:12;;;;;;;0.70;0.70;;;31.10;72.70;;;;;;5069814;28;20203;-70
2022/08/12 10:54:41;;;;;;;0.98;0.90;;;31.20;72.20;;;;;;5070714;28;20233;-69
2022/08/12 10:57:09;;;;;;;1.45;0.77;;;31.20;71.30;;;;;;5061940;28;20204;-70
2022/08/12 10:59:36;;;;;;;0.80;0.80;;;31.20;71.00;;;;;;5071360;28;20198;-71
2022/08/12 11:02:03;;;;;;;0.90;0.90;;;31.20;70.20;;;;;;5078191;28;20198;-70
2022/08/12 11:04:30;;;;;;;0.70;0.70;;;31.20;69.90;;;;;;5079438;28;20227;-69
2022/08/12 11:06:59;;;;;;;1.33;0.80;;;31.40;70.70;;;;;;5068838;28;20685;-69
2022/08/12 11:09:30;;;;;;;0.60;0.60;;;31.40;70.10;;;;;;5063627;28;20207;-69
2022/08/12 11:11:58;;;;;;;0.80;0.80;;;31.30;69.10;;;;;;5065623;28;21865;-70
2022/08/12 11:14:30;;;;;;;0.75;0.75;;;31.40;68.90;;;;;;5071532;28;20227;-69
2022/08/12 11:17:05;;;;;;;0.80;0.80;;;31.50;69.30;;;;;;5086184;28;20234;-68
2022/08/12 11:19:35;;;;;;;0.73;0.73;;;31.50;69.60;;;;;;5095460;28;20191;-70
2022/08/12 11:22:04;;;;;;;0.80;0.80;;;31.70;70.30;;;;;;5093545;28;20229;-68
2022/08/12 11:24:31;;;;;;;0.68;0.68;;;31.80;69.90;;;;;;5073786;28;20287;-69
2022/08/12 11:27:00;;;;;;;0.80;0.80;;;31.80;69.30;;;;;;5077127;28;20547;-69
2022/08/12 11:29:28;;;;;;;0.80;0.80;;;31.80;69.50;;;;;;5075517;28;20246;-68
2022/08/12 11:31:55;;;;;;;1.88;0.70;;;31.70;69.10;;;;;;5078921;28;20207;-70
2022/08/12 11:34:22;;;;;;;0.82;0.82;;;31.80;69.10;;;;;;5076965;28;20314;-67
2022/08/12 11:36:50;;;;;;;0.75;0.75;;;32.00;68.90;;;;;;5075764;28;20200;-68
2022/08/12 11:39:19;;;;;;;0.80;0.80;;;32.00;68.40;;;;;;5072895;28;20203;-69
2022/08/12 11:41:46;;;;;;;0.68;0.68;;;32.10;69.80;;;;;;5071709;28;20195;-68
2022/08/12 11:44:13;;;;;;;2.83;0.98;;;32.00;70.10;;;;;;5071945;28;20231;-68
2022/08/12 11:46:41;;;;;;;0.75;0.75;;;32.10;68.90;;;;;;5072305;28;20203;-70
2022/08/12 11:49:09;;;;;;;0.77;0.77;;;32.30;69.10;;;;;;5072050;28;20223;-69
2022/08/12 11:51:36;;;;;;;0.80;0.80;;;32.20;68.40;;;;;;5079995;28;20680;-69
2022/08/12 11:54:04;;;;;;;1.48;0.70;;;32.30;68.20;;;;;;5078333;28;20231;-69
2022/08/12 11:56:32;;;;;;;1.25;0.70;;;32.30;68.40;;;;;;5084229;28;20297;-68
2022/08/12 11:58:59;;;;;;;0.88;0.80;;;32.40;67.60;;;;;;5078945;28;20196;-68
2022/08/12 12:01:26;;;;;;;0.70;0.70;;;32.20;68.30;;;;;;5084562;28;20207;-69
2022/08/12 12:03:53;;;;;;;0.70;0.70;;;32.30;68.00;;;;;;5083020;28;20308;-69
2022/08/12 12:06:20;;;;;;;0.70;0.70;;;32.00;67.50;;;;;;5076968;28;20212;-68
2022/08/12 12:08:48;;;;;;;0.80;0.80;;;32.10;67.90;;;;;;5090574;28;20223;-68
2022/08/12 12:11:15;;;;;;;1.45;0.70;;;32.20;67.70;;;;;;5083027;28;20199;-68
2022/08/12 12:13:43;;;;;;;0.70;0.70;;;32.30;67.10;;;;;;5069869;28;20232;-67
2022/08/12 12:16:10;;;;;;;0.70;0.70;;;32.40;66.20;;;;;;5097700;28;20286;-69
2022/08/12 12:18:38;;;;;;;0.70;0.70;;;32.50;66.30;;;;;;5094964;28;20211;-69
2022/08/12 12:21:07;;;;;;;0.63;0.55;;;32.60;66.30;;;;;;5087159;28;20207;-68
2022/08/12 12:23:34;;;;;;;0.82;0.82;;;32.60;66.40;;;;;;5082113;28;20262;-70
2022/08/12 12:26:01;;;;;;;4.93;1.13;;;32.60;66.40;;;;;;5086851;28;20303;-69
2022/08/12 12:28:28;;;;;;;0.93;0.88;;;32.40;65.90;;;;;;5090243;28;20207;-68
2022/08/12 12:30:56;;;;;;;0.60;0.60;;;32.50;67.10;;;;;;5081390;28;20308;-69
2022/08/12 12:33:23;;;;;;;0.60;0.60;;;32.50;66.30;;;;;;5083999;28;20313;-69
2022/08/12 12:35:50;;;;;;;0.70;0.70;;;32.30;66.10;;;;;;5087427;28;20254;-68
2022/08/12 12:38:18;;;;;;;1.05;0.60;;;32.50;66.30;;;;;;5082911;28;20215;-69
2022/08/12 12:40:48;;;;;;;0.95;0.95;;;32.50;66.40;;;;;;5072472;28;20283;-70
2022/08/12 12:43:15;;;;;;;1.30;0.70;;;32.60;68.40;;;;;;5079310;28;20214;-69
2022/08/12 12:45:44;;;;;;;0.60;0.60;;;32.60;68.00;;;;;;5078348;28;20317;-70
2022/08/12 12:48:13;;;;;;;1.30;0.65;;;32.90;68.50;;;;;;5081893;28;20293;-69
2022/08/12 12:50:42;;;;;;;1.05;0.95;;;32.90;66.60;;;;;;5080497;28;20245;-69
2022/08/12 12:53:11;;;;;;;1.45;0.80;;;32.90;67.20;;;;;;5085843;28;20202;-68
2022/08/12 12:55:39;;;;;;;4.50;1.13;;;33.00;67.00;;;;;;5081413;28;20246;-68
2022/08/12 12:58:15;;;;;;;1.15;0.98;;;33.10;68.10;;;;;;5085360;28;20202;-70
2022/08/12 13:00:43;;;;;;;0.50;0.50;;;33.00;66.70;;;;;;5083808;28;20191;-68
2022/08/12 13:03:12;;;;;;;0.73;0.73;;;32.80;66.70;;;;;;5085183;28;20217;-72
2022/08/12 13:05:42;;;;;;;0.70;0.70;;;32.70;67.50;;;;;;5082208;28;20222;-67
2022/08/12 13:08:23;;;;;;;1.00;1.00;;;32.80;67.60;;;;;;5087996;28;20220;-67
2022/08/12 13:10:51;;;;;;;0.68;0.68;;;32.80;66.60;;;;;;5077058;28;20272;-69
2022/08/12 13:13:18;;;;;;;0.65;0.65;;;32.70;66.50;;;;;;5081380;28;20586;-68
2022/08/12 13:15:48;;;;;;;0.68;0.68;;;32.70;66.50;;;;;;5076189;28;20341;-69
2022/08/12 13:18:17;;;;;;;0.70;0.70;;;32.70;66.40;;;;;;5077711;28;20217;-68
2022/08/12 13:20:44;;;;;;;0.60;0.60;;;32.70;66.50;;;;;;5088654;28;20279;-68
2022/08/12 13:23:14;;;;;;;1.08;0.75;;;32.70;66.10;;;;;;5081704;28;20196;-68
2022/08/12 13:25:41;;;;;;;0.68;0.68;;;32.80;66.20;;;;;;5088955;28;20223;-69
2022/08/12 13:28:09;;;;;;;0.60;0.60;;;32.80;65.50;;;;;;5081343;28;20202;-68
2022/08/12 13:30:36;;;;;;;0.70;0.70;;;32.90;65.00;;;;;;5084123;28;20309;-70
2022/08/12 13:33:04;;;;;;;0.60;0.60;;;32.90;65.40;;;;;;5087533;28;20683;-69
2022/08/12 13:35:34;;;;;;;0.80;0.80;;;33.10;66.80;;;;;;5083162;28;20234;-68
2022/08/12 13:38:01;;;;;;;0.73;0.73;;;33.20;66.50;;;;;;5086182;28;20295;-69
2022/08/12 13:40:30;;;;;;;2.53;0.75;;;33.00;66.00;;;;;;5083419;28;20198;-67
2022/08/12 13:42:58;;;;;;;0.70;0.70;;;33.10;65.50;;;;;;5086435;28;20298;-69
2022/08/12 13:45:26;;;;;;;0.70;0.70;;;33.00;65.90;;;;;;5080265;28;20234;-70
2022/08/12 13:47:55;;;;;;;0.60;0.60;;;33.00;65.80;;;;;;5069983;28;20203;-69
2022/08/12 13:50:31;;;;;;;1.05;0.90;;;33.00;64.30;;;;;;5071030;28;20307;-69
2022/08/12 13:53:00;;;;;;;0.80;0.80;;;32.80;63.30;;;;;;5069664;28;20744;-69
2022/08/12 13:55:28;;;;;;;0.60;0.60;;;32.90;63.60;;;;;;5066751;28;20223;-69
2022/08/12 13:57:55;;;;;;;0.70;0.70;;;32.90;64.00;;;;;;5069913;28;20631;-69
2022/08/12 14:00:24;;;;;;;1.50;0.90;;;33.10;65.30;;;;;;5068779;28;20302;-67
2022/08/12 14:02:52;;;;;;;0.60;0.60;;;33.30;64.60;;;;;;5069063;28;20203;-69
2022/08/12 14:05:19;;;;;;;0.60;0.60;;;33.40;64.40;;;;;;5069535;28;21076;-68
2022/08/12 14:07:57;;;;;;;0.73;0.70;;;33.40;63.90;;;;;;5068370;28;20234;-68
2022/08/12 14:10:36;;;;;;;0.73;0.73;;;33.30;63.60;;;;;;5069197;28;20225;-67
2022/08/12 14:13:05;;;;;;;0.77;0.65;;;33.10;63.60;;;;;;5068926;28;20205;-69
2022/08/12 14:15:32;;;;;;;1.85;0.80;;;33.00;63.10;;;;;;5070959;28;20227;-68
2022/08/12 14:18:06;;;;;;;0.90;0.70;;;33.00;63.00;;;;;;5069016;28;20238;-68
2022/08/12 14:20:33;;;;;;;0.40;0.40;;;32.90;63.50;;;;;;5070636;28;20206;-69
2022/08/12 14:23:00;;;;;;;0.63;0.63;;;33.00;61.90;;;;;;5060599;28;20218;-69
2022/08/12 14:25:28;;;;;;;0.95;0.80;;;33.00;62.30;;;;;;5075397;28;20290;-68
2022/08/12 14:28:03;;;;;;;0.70;0.70;;;33.00;61.90;;;;;;5070864;28;20245;-69
2022/08/12 14:30:30;;;;;;;4.72;1.23;;;33.00;61.90;;;;;;5076039;28;20230;-68
2022/08/12 14:33:01;;;;;;;1.38;0.85;;;33.00;61.80;;;;;;5077108;28;20238;-67
2022/08/12 14:35:28;;;;;;;0.77;0.77;;;32.90;61.80;;;;;;5067463;28;20666;-69
2022/08/12 14:37:55;;;;;;;0.60;0.50;;;32.90;62.00;;;;;;5068080;28;20276;-68
2022/08/12 14:40:21;;;;;;;0.73;0.73;;;32.90;61.90;;;;;;5065718;28;20282;-70
2022/08/12 14:42:50;;;;;;;0.50;0.50;;;32.90;61.90;;;;;;5066601;28;20199;-69
2022/08/12 14:45:17;;;;;;;0.85;0.85;;;32.90;62.20;;;;;;5072849;28;20241;-69
2022/08/12 14:47:53;;;;;;;1.60;0.80;;;32.90;62.50;;;;;;5076905;28;20385;-70